createdAt,value
2022-08-28T00:00:37.572Z,99631.25
2022-08-28T00:03:05.781Z,99630.31
2022-08-28T00:05:34.105Z,99632.22
2022-08-28T00:08:00.789Z,99625.28
2022-08-28T00:10:28.159Z,99625.41
2022-08-28T00:12:57.492Z,99616.81
2022-08-28T00:15:33.879Z,99619.56
2022-08-28T00:18:01.798Z,99621.47
2022-08-28T00:20:29.077Z,99624.22
2022-08-28T00:25:38.393Z,99623.63
2022-08-28T00:28:08.832Z,99621.03
2022-08-28T00:30:46.556Z,99628.97
2022-08-28T00:33:38.100Z,99630.56
2022-08-28T00:36:05.197Z,99623.50
2022-08-28T00:38:31.822Z,99625.34
2022-08-28T00:41:03.842Z,99620.00
2022-08-28T00:43:36.618Z,99620.13
2022-08-28T00:46:06.583Z,99616.63
2022-08-28T00:48:33.200Z,99615.75
2022-08-28T00:51:19.456Z,99613.25
2022-08-28T00:53:46.131Z,99622.22
2022-08-28T00:56:16.526Z,99611.72
2022-08-28T00:58:45.091Z,99618.91
2022-08-28T01:01:13.097Z,99620.69
2022-08-28T01:03:41.055Z,99618.13
2022-08-28T01:06:08.367Z,99619.97
2022-08-28T01:08:36.952Z,99611.16
2022-08-28T01:11:07.645Z,99616.66
2022-08-28T01:13:36.583Z,99621.19
2022-08-28T01:16:04.062Z,99626.66
2022-08-28T01:18:33.217Z,99624.09
2022-08-28T01:21:20.556Z,99623.91
2022-08-28T01:23:58.126Z,99628.41
2022-08-28T01:26:27.753Z,99631.09
2022-08-28T01:28:55.728Z,99625.75
2022-08-28T01:31:22.392Z,99626.66
2022-08-28T01:33:49.163Z,99623.94
2022-08-28T01:36:16.262Z,99610.56
2022-08-28T01:38:45.578Z,99607.91
2022-08-28T01:41:14.054Z,99613.34
2022-08-28T01:43:41.699Z,99608.94
2022-08-28T01:46:09.889Z,99611.66
2022-08-28T01:48:39.931Z,99614.34
2022-08-28T01:51:06.866Z,99609.13
2022-08-28T01:53:33.778Z,99610.88
2022-08-28T01:56:02.907Z,99608.34
2022-08-28T01:58:37.556Z,99604.78
2022-08-28T02:01:10.609Z,99608.47
2022-08-28T02:03:37.377Z,99604.78
2022-08-28T02:06:04.806Z,99597.75
2022-08-28T02:08:31.832Z,99606.63
2022-08-28T02:10:59.008Z,99606.63
2022-08-28T02:13:25.723Z,99601.34
2022-08-28T02:15:52.684Z,99601.47
2022-08-28T02:18:19.438Z,99597.09
2022-08-28T02:20:46.626Z,99596.19
2022-08-28T02:23:13.833Z,99605.94
2022-08-28T02:25:40.761Z,99609.47
2022-08-28T02:28:07.518Z,99610.34
2022-08-28T02:30:35.443Z,99608.59
2022-08-28T02:33:02.579Z,99607.81
2022-08-28T02:35:29.964Z,99611.38
2022-08-28T02:37:57.021Z,99607.94
2022-08-28T02:40:24.603Z,99604.38
2022-08-28T02:42:52.269Z,99604.47
2022-08-28T02:45:19.793Z,99608.13
2022-08-28T02:47:47.855Z,99607.28
2022-08-28T02:50:17.050Z,99614.34
2022-08-28T02:52:44.070Z,99611.66
2022-08-28T02:55:12.599Z,99603.72
2022-08-28T02:57:39.812Z,99607.34
2022-08-28T03:00:11.733Z,99606.53
2022-08-28T03:02:39.666Z,99601.19
2022-08-28T03:05:06.499Z,99609.31
2022-08-28T03:07:33.203Z,99613.84
2022-08-28T03:09:59.762Z,99618.38
2022-08-28T03:12:26.442Z,99609.59
2022-08-28T03:14:54.490Z,99611.38
2022-08-28T03:17:22.164Z,99615.03
2022-08-28T03:19:50.182Z,99623.09
2022-08-28T03:22:39.607Z,99622.16
2022-08-28T03:25:06.919Z,99626.59
2022-08-28T03:27:33.618Z,99620.31
2022-08-28T03:30:00.199Z,99618.38
2022-08-28T03:32:26.872Z,99618.38
2022-08-28T03:34:56.990Z,99616.59
2022-08-28T03:37:23.605Z,99613.97
2022-08-28T03:39:50.372Z,99612.25
2022-08-28T03:42:17.286Z,99617.66
2022-08-28T03:44:44.087Z,99615.81
2022-08-28T03:47:12.278Z,99613.09
2022-08-28T03:49:39.842Z,99611.31
2022-08-28T03:52:08.790Z,99609.53
2022-08-28T03:54:35.320Z,99604.25
2022-08-28T03:57:01.820Z,99615.78
2022-08-28T03:59:31.754Z,99612.25
2022-08-28T04:02:00.409Z,99615.81
2022-08-28T04:04:26.922Z,99621.16
2022-08-28T04:06:53.514Z,99627.31
2022-08-28T04:09:20.116Z,99628.19
2022-08-28T04:11:46.630Z,99630.78
2022-08-28T04:14:13.119Z,99632.53
2022-08-28T04:16:39.806Z,99634.19
2022-08-28T04:19:06.318Z,99635.84
2022-08-28T04:21:32.820Z,99637.56
2022-08-28T04:23:59.326Z,99639.28
2022-08-28T04:26:27.906Z,99635.59
2022-08-28T04:28:56.149Z,99639.94
2022-08-28T04:31:32.208Z,99640.72
2022-08-28T04:34:05.117Z,99636.16
2022-08-28T04:36:32.786Z,99637.81
2022-08-28T04:38:59.701Z,99651.97
2022-08-28T04:41:26.732Z,99651.91
2022-08-28T04:43:53.926Z,99649.06
2022-08-28T04:46:20.581Z,99642.75
2022-08-28T04:48:47.201Z,99648.81
2022-08-28T04:51:15.153Z,99653.13
2022-08-28T04:53:42.671Z,99657.41
2022-08-28T04:56:12.722Z,99649.25
2022-08-28T04:58:40.606Z,99657.84
2022-08-28T05:01:13.959Z,99655.78
2022-08-28T05:03:40.978Z,99662.66
2022-08-28T05:06:08.171Z,99656.19
2022-08-28T05:08:34.962Z,99655.03
2022-08-28T05:11:30.738Z,99644.97
2022-08-28T05:14:02.432Z,99646.50
2022-08-28T05:16:29.084Z,99650.53
2022-08-28T05:19:00.397Z,99649.19
2022-08-28T05:21:28.295Z,99650.72
2022-08-28T05:23:57.547Z,99654.97
2022-08-28T05:26:27.148Z,99661.06
2022-08-28T05:28:58.876Z,99664.44
2022-08-28T05:31:27.718Z,99660.56
2022-08-28T05:33:54.355Z,99666.69
2022-08-28T05:36:23.227Z,99677.03
2022-08-28T05:38:57.103Z,99677.84
2022-08-28T05:41:28.385Z,99675.25
2022-08-28T05:43:54.934Z,99672.50
2022-08-28T05:46:22.391Z,99673.06
2022-08-28T05:48:49.416Z,99675.59
2022-08-28T05:51:19.462Z,99676.16
2022-08-28T05:53:47.931Z,99664.47
2022-08-28T05:56:17.552Z,99668.56
2022-08-28T05:58:44.131Z,99663.94
2022-08-28T06:01:20.085Z,99669.75
2022-08-28T06:04:01.596Z,99669.63
2022-08-28T06:06:30.363Z,99670.97
2022-08-28T06:08:59.473Z,99673.28
2022-08-28T06:11:30.424Z,99681.00
2022-08-28T06:14:02.744Z,99674.16
2022-08-28T06:16:31.301Z,99677.34
2022-08-28T06:18:58.471Z,99678.63
2022-08-28T06:21:25.075Z,99683.09
2022-08-28T06:23:51.966Z,99694.13
2022-08-28T06:26:18.863Z,99694.38
2022-08-28T06:28:45.442Z,99689.38
2022-08-28T06:31:23.263Z,99690.50
2022-08-28T06:33:50.893Z,99689.47
2022-08-28T06:36:17.512Z,99690.72
2022-08-28T06:38:46.667Z,99695.81
2022-08-28T06:41:14.344Z,99690.94
2022-08-28T06:43:41.502Z,99696.47
2022-08-28T06:46:08.182Z,99703.84
2022-08-28T06:48:34.856Z,99701.59
2022-08-28T06:51:01.705Z,99698.47
2022-08-28T06:53:30.510Z,99694.88
2022-08-28T06:56:07.238Z,99702.81
2022-08-28T06:58:35.313Z,99696.88
2022-08-28T07:01:08.027Z,99706.72
2022-08-28T07:03:35.050Z,99701.03
2022-08-28T07:06:04.778Z,99701.09
2022-08-28T07:08:32.338Z,99701.22
2022-08-28T07:10:59.493Z,99691.91
2022-08-28T07:13:29.122Z,99703.25
2022-08-28T07:15:57.821Z,99703.91
2022-08-28T07:18:24.352Z,99699.09
2022-08-28T07:20:58.785Z,99694.06
2022-08-28T07:23:26.107Z,99692.22
2022-08-28T07:25:52.626Z,99704.78
2022-08-28T07:28:19.508Z,99706.28
2022-08-28T07:30:46.353Z,99714.19
2022-08-28T07:33:12.911Z,99703.25
2022-08-28T07:35:43.497Z,99712.06
2022-08-28T07:38:10.014Z,99709.28
2022-08-28T07:40:36.670Z,99713.78
2022-08-28T07:43:21.882Z,99710.03
2022-08-28T07:45:57.915Z,99715.91
2022-08-28T07:48:24.876Z,99718.97
2022-08-28T07:50:51.456Z,99716.09
2022-08-28T07:53:18.132Z,99723.97
2022-08-28T07:55:45.757Z,99723.59
2022-08-28T07:58:13.791Z,99729.44
2022-08-28T08:00:41.429Z,99732.59
2022-08-28T08:03:08.109Z,99733.50
2022-08-28T08:05:34.714Z,99728.97
2022-08-28T08:08:01.423Z,99738.06
2022-08-28T08:10:27.965Z,99735.69
2022-08-28T08:13:00.900Z,99727.78
2022-08-28T08:15:31.199Z,99729.13
2022-08-28T08:17:57.958Z,99739.75
2022-08-28T08:20:24.491Z,99732.91
2022-08-28T08:22:51.057Z,99734.66
2022-08-28T08:25:17.757Z,99742.41
2022-08-28T08:27:44.374Z,99733.22
2022-08-28T08:30:11.707Z,99740.75
2022-08-28T08:32:40.134Z,99749.31
2022-08-28T08:35:07.121Z,99752.78
2022-08-28T08:37:33.653Z,99753.03
2022-08-28T08:40:00.405Z,99749.53
2022-08-28T08:42:33.233Z,99752.06
2022-08-28T08:45:04.199Z,99754.59
2022-08-28T08:47:43.047Z,99761.38
2022-08-28T08:50:17.320Z,99753.84
2022-08-28T08:53:11.449Z,99750.41
2022-08-28T08:55:50.993Z,99757.13
2022-08-28T08:58:28.711Z,99758.66
2022-08-28T09:01:11.602Z,99762.22
2022-08-28T09:04:00.777Z,99763.91
2022-08-28T09:06:46.428Z,99759.69
2022-08-28T09:09:32.180Z,99766.94
2022-08-28T09:12:05.387Z,99764.25
2022-08-28T09:15:08.883Z,99766.69
2022-08-28T09:17:57.434Z,99763.66
2022-08-28T09:20:32.327Z,99760.13
2022-08-28T09:23:02.021Z,99769.53
2022-08-28T09:25:54.773Z,99764.81
2022-08-28T09:28:30.908Z,99765.22
2022-08-28T09:31:13.767Z,99763.94
2022-08-28T09:33:52.368Z,99763.28
2022-08-28T09:36:26.257Z,99767.56
2022-08-28T09:39:21.939Z,99775.97
2022-08-28T09:42:25.135Z,99781.66
2022-08-28T09:45:10.117Z,99773.19
2022-08-28T09:47:56.010Z,99779.97
2022-08-28T09:50:32.957Z,99770.16
2022-08-28T09:53:20.796Z,99782.31
2022-08-28T09:55:56.292Z,99769.03
2022-08-28T09:58:36.451Z,99777.13
2022-08-28T10:01:14.867Z,99781.31
2022-08-28T10:03:53.371Z,99777.03
2022-08-28T10:06:33.293Z,99770.47
2022-08-28T10:09:15.062Z,99771.03
2022-08-28T10:11:56.553Z,99769.03
2022-08-28T10:14:38.449Z,99771.22
2022-08-28T10:17:16.765Z,99777.06
2022-08-28T10:20:43.195Z,99770.13
2022-08-28T10:23:31.577Z,99767.97
2022-08-28T10:26:33.292Z,99779.75
2022-08-28T10:29:15.810Z,99776.53
2022-08-28T10:32:09.986Z,99782.94
2022-08-28T10:34:44.229Z,99777.53
2022-08-28T10:37:17.829Z,99778.13
2022-08-28T10:39:53.052Z,99773.00
2022-08-28T10:42:27.834Z,99773.38
2022-08-28T10:45:19.159Z,99782.56
2022-08-28T10:48:00.495Z,99783.50
2022-08-28T10:50:43.008Z,99774.59
2022-08-28T10:53:38.023Z,99770.59
2022-08-28T10:56:12.529Z,99774.75
2022-08-28T10:58:41.043Z,99775.84
2022-08-28T11:01:27.926Z,99772.56
2022-08-28T11:03:57.311Z,99764.00
2022-08-28T11:06:35.935Z,99764.75
2022-08-28T11:09:24.930Z,99772.16
2022-08-28T11:12:21.587Z,99770.38
2022-08-28T11:14:51.162Z,99768.34
2022-08-28T11:17:25.240Z,99772.31
2022-08-28T11:20:12.374Z,99776.03
2022-08-28T11:22:45.512Z,99775.13
2022-08-28T11:25:18.912Z,99773.81
2022-08-28T11:28:14.150Z,99776.97
2022-08-28T11:30:42.862Z,99771.38
2022-08-28T11:33:52.764Z,99780.97
2022-08-28T11:36:22.095Z,99777.25
2022-08-28T11:38:51.609Z,99781.41
2022-08-28T11:41:36.491Z,99789.25
2022-08-28T11:44:15.112Z,99791.84
2022-08-28T11:46:44.488Z,99791.84
2022-08-28T11:49:29.215Z,99789.13
2022-08-28T11:52:23.413Z,99786.44
2022-08-28T11:55:12.308Z,99784.25
2022-08-28T12:00:54.297Z,99786.94
2022-08-28T12:03:37.366Z,99798.53
2022-08-28T12:06:04.977Z,99798.75
2022-08-28T12:08:51.275Z,99795.09
2022-08-28T12:11:48.341Z,99792.41
2022-08-28T12:14:27.553Z,99800.19
2022-08-28T12:17:00.200Z,99796.94
2022-08-28T12:19:41.545Z,99804.81
2022-08-28T12:22:25.846Z,99813.19
2022-08-28T12:24:57.573Z,99811.97
2022-08-28T12:27:24.590Z,99810.44
2022-08-28T12:29:55.583Z,99805.13
2022-08-28T12:32:57.210Z,99813.34
2022-08-28T12:35:29.578Z,99809.84
2022-08-28T12:37:57.414Z,99808.09
2022-08-28T12:40:50.250Z,99822.16
2022-08-28T12:43:35.826Z,99815.44
2022-08-28T12:46:19.727Z,99809.59
2022-08-28T12:48:54.140Z,99810.78
2022-08-28T12:51:27.782Z,99808.78
2022-08-28T12:53:57.443Z,99805.44
2022-08-28T12:56:26.099Z,99801.38
2022-08-28T12:58:53.891Z,99805.13
2022-08-28T13:01:31.545Z,99802.88
2022-08-28T13:04:02.554Z,99803.16
2022-08-28T13:06:39.643Z,99805.59
2022-08-28T13:09:15.608Z,99816.78
2022-08-28T13:11:49.227Z,99829.22
2022-08-28T13:14:44.090Z,99830.28
2022-08-28T13:17:14.314Z,99830.09
2022-08-28T13:19:41.433Z,99840.59
2022-08-28T13:22:29.688Z,99837.13
2022-08-28T13:25:01.069Z,99836.13
2022-08-28T13:27:31.153Z,99837.69
2022-08-28T13:30:02.873Z,99839.72
2022-08-28T13:32:34.370Z,99839.84
2022-08-28T13:35:24.934Z,99845.22
2022-08-28T13:37:57.391Z,99836.28
2022-08-28T13:40:56.214Z,99846.13
2022-08-28T13:43:18.252Z,99834.56
2022-08-28T13:45:46.222Z,99844.63
2022-08-28T13:48:15.734Z,99848.16
2022-08-28T13:50:46.944Z,99847.97
2022-08-28T13:53:15.687Z,99854.13
2022-08-28T13:55:42.422Z,99856.25
2022-08-28T13:58:08.947Z,99849.84
2022-08-28T14:00:41.097Z,99846.28
2022-08-28T14:03:26.180Z,99840.69
2022-08-28T14:05:53.158Z,99846.91
2022-08-28T14:08:19.650Z,99847.41
2022-08-28T14:10:46.565Z,99851.16
2022-08-28T14:13:13.281Z,99849.28
2022-08-28T14:15:40.153Z,99843.06
2022-08-28T14:18:06.771Z,99852.28
2022-08-28T14:20:33.330Z,99850.06
2022-08-28T14:22:59.870Z,99850.97
2022-08-28T14:25:27.728Z,99859.09
2022-08-28T14:27:55.810Z,99848.34
2022-08-28T14:30:24.049Z,99849.66
2022-08-28T14:32:50.590Z,99859.66
2022-08-28T14:35:17.113Z,99852.63
2022-08-28T14:37:43.652Z,99855.63
2022-08-28T14:40:12.679Z,99866.75
2022-08-28T14:42:39.505Z,99864.09
2022-08-28T14:45:06.510Z,99863.19
2022-08-28T14:47:33.078Z,99868.53
2022-08-28T14:49:59.616Z,99851.53
2022-08-28T14:52:26.513Z,99859.66
2022-08-28T14:54:53.294Z,99866.81
2022-08-28T14:57:19.854Z,99856.50
2022-08-28T14:59:46.780Z,99865.06
2022-08-28T15:02:13.630Z,99859.78
2022-08-28T15:04:40.198Z,99866.19
2022-08-28T15:07:10.891Z,99858.25
2022-08-28T15:09:40.589Z,99867.47
2022-08-28T15:12:08.784Z,99863.59
2022-08-28T15:14:36.087Z,99858.09
2022-08-28T15:17:04.491Z,99851.06
2022-08-28T15:19:31.243Z,99856.41
2022-08-28T15:21:58.738Z,99846.69
2022-08-28T15:24:31.574Z,99853.00
2022-08-28T15:26:59.627Z,99843.78
2022-08-28T15:29:30.027Z,99847.47
2022-08-28T15:31:57.490Z,99850.25
2022-08-28T15:34:26.668Z,99854.81
2022-08-28T15:36:54.761Z,99852.38
2022-08-28T15:39:45.454Z,99847.16
2022-08-28T15:42:12.449Z,99851.78
2022-08-28T15:44:40.059Z,99847.63
2022-08-28T15:47:07.333Z,99855.94
2022-08-28T15:49:43.620Z,99855.19
2022-08-28T15:52:15.564Z,99860.81
2022-08-28T15:54:42.847Z,99855.69
2022-08-28T15:57:09.550Z,99864.91
2022-08-28T15:59:48.334Z,99865.94
2022-08-28T16:02:17.936Z,99871.34
2022-08-28T16:04:44.472Z,99871.81
2022-08-28T16:07:11.142Z,99880.81
2022-08-28T16:09:37.826Z,99876.50
2022-08-28T16:12:04.709Z,99872.91
2022-08-28T16:14:32.839Z,99881.81
2022-08-28T16:17:05.985Z,99879.06
2022-08-28T16:19:37.895Z,99880.34
2022-08-28T16:22:05.168Z,99883.78
2022-08-28T16:24:31.780Z,99875.78
2022-08-28T16:26:58.386Z,99882.28
2022-08-28T16:29:24.915Z,99885.84
2022-08-28T16:31:51.786Z,99884.84
2022-08-28T16:34:19.641Z,99888.28
2022-08-28T16:36:50.400Z,99894.34
2022-08-28T16:39:17.038Z,99893.56
2022-08-28T16:41:49.657Z,99893.34
2022-08-28T16:44:21.158Z,99892.56
2022-08-28T16:46:47.883Z,99891.56
2022-08-28T16:49:15.125Z,99902.53
2022-08-28T16:51:41.663Z,99896.44
2022-08-28T16:54:08.276Z,99894.84
2022-08-28T16:56:34.905Z,99880.63
2022-08-28T16:59:01.415Z,99897.56
2022-08-28T17:01:28.066Z,99897.63
2022-08-28T17:03:55.165Z,99893.22
2022-08-28T17:06:25.526Z,99895.94
2022-08-28T17:08:56.673Z,99899.53
2022-08-28T17:11:25.683Z,99895.13
2022-08-28T17:13:52.320Z,99896.94
2022-08-28T17:16:20.547Z,99902.38
2022-08-28T17:18:52.025Z,99903.16
2022-08-28T17:21:37.815Z,99911.31
2022-08-28T17:24:04.566Z,99911.31
2022-08-28T17:26:31.060Z,99914.88
2022-08-28T17:28:57.590Z,99913.03
2022-08-28T17:31:24.229Z,99919.38
2022-08-28T17:33:50.891Z,99925.59
2022-08-28T17:36:32.386Z,99919.31
2022-08-28T17:39:00.283Z,99924.81
2022-08-28T17:41:27.620Z,99921.31
2022-08-28T17:43:54.339Z,99932.97
2022-08-28T17:46:20.951Z,99928.47
2022-08-28T17:48:55.697Z,99931.19
2022-08-28T17:51:42.823Z,99934.84
2022-08-28T17:54:16.760Z,99934.94
2022-08-28T17:56:43.892Z,99935.88
2022-08-28T17:59:11.669Z,99941.38
2022-08-28T18:01:38.669Z,99940.47
2022-08-28T18:04:05.768Z,99942.34
2022-08-28T18:06:33.074Z,99943.44
2022-08-28T18:09:00.470Z,99941.75
2022-08-28T18:11:27.433Z,99949.84
2022-08-28T18:13:54.171Z,99948.94
2022-08-28T18:16:20.923Z,99959.69
2022-08-28T18:18:47.606Z,99949.84
2022-08-28T18:21:14.943Z,99956.16
2022-08-28T18:23:41.524Z,99965.91
2022-08-28T18:26:08.520Z,99961.75
2022-08-28T18:28:36.695Z,99959.91
2022-08-28T18:31:05.712Z,99963.38
2022-08-28T18:33:35.305Z,99963.28
2022-08-28T18:36:02.037Z,99977.44
2022-08-28T18:38:28.667Z,99973.06
2022-08-28T18:40:58.197Z,99978.47
2022-08-28T18:43:24.720Z,99982.72
2022-08-28T18:45:51.455Z,99979.38
2022-08-28T18:48:19.262Z,99980.56
2022-08-28T18:50:49.963Z,99984.16
2022-08-28T18:53:19.883Z,99984.72
2022-08-28T18:55:46.402Z,99989.00
2022-08-28T18:58:14.974Z,99986.78
2022-08-28T19:00:42.164Z,99987.88
2022-08-28T19:03:09.263Z,99989.72
2022-08-28T19:05:37.682Z,99995.88
2022-08-28T19:08:04.765Z,99995.47
2022-08-28T19:10:34.389Z,99998.00
2022-08-28T19:13:01.944Z,99998.47
2022-08-28T19:15:29.115Z,100001.34
2022-08-28T19:17:56.200Z,100005.88
2022-08-28T19:20:23.719Z,100006.56
2022-08-28T19:22:50.317Z,100008.16
2022-08-28T19:25:27.474Z,100007.31
2022-08-28T19:27:56.256Z,100005.81
2022-08-28T19:30:25.780Z,100012.13
2022-08-28T19:32:52.428Z,100005.94
2022-08-28T19:35:19.114Z,100005.03
2022-08-28T19:37:45.777Z,100015.31
2022-08-28T19:40:13.493Z,100014.13
2022-08-28T19:42:42.134Z,100020.56
2022-08-28T19:45:12.528Z,100013.78
2022-08-28T19:47:39.484Z,100020.09
2022-08-28T19:50:08.687Z,100020.19
2022-08-28T19:52:36.448Z,100023.66
2022-08-28T19:55:05.827Z,100025.84
2022-08-28T19:57:33.819Z,100026.66
2022-08-28T20:00:00.779Z,100024.25
2022-08-28T20:02:29.461Z,100024.44
2022-08-28T20:04:56.253Z,100024.53
2022-08-28T20:07:24.391Z,100031.69
2022-08-28T20:09:51.855Z,100030.91
2022-08-28T20:12:22.240Z,100022.94
2022-08-28T20:14:49.359Z,100036.31
2022-08-28T20:17:17.746Z,100029.25
2022-08-28T20:19:46.174Z,100026.63
2022-08-28T20:22:12.727Z,100031.97
2022-08-28T20:24:39.450Z,100029.31
2022-08-28T20:27:06.114Z,100040.91
2022-08-28T20:29:36.351Z,100043.59
2022-08-28T20:32:03.487Z,100044.47
2022-08-28T20:34:30.034Z,100046.22
2022-08-28T20:36:56.579Z,100047.16
2022-08-28T20:39:23.452Z,100046.38
2022-08-28T20:41:50.104Z,100046.41
2022-08-28T20:44:19.076Z,100050.00
2022-08-28T20:46:51.591Z,100051.84
2022-08-28T20:49:23.833Z,100061.63
2022-08-28T20:51:53.450Z,100056.38
2022-08-28T20:54:35.903Z,100056.41
2022-08-28T20:57:07.791Z,100052.03
2022-08-28T20:59:39.939Z,100060.09
2022-08-28T21:02:10.632Z,100068.19
2022-08-28T21:04:39.697Z,100070.00
2022-08-28T21:07:06.372Z,100061.16
2022-08-28T21:09:43.954Z,100067.41
2022-08-28T21:12:20.039Z,100067.44
2022-08-28T21:14:51.395Z,100071.97
2022-08-28T21:17:22.679Z,100073.75
2022-08-28T21:19:57.369Z,100073.81
2022-08-28T21:22:24.942Z,100077.47
2022-08-28T21:24:51.677Z,100083.75
2022-08-28T21:27:18.772Z,100080.28
2022-08-28T21:29:46.155Z,100085.63
2022-08-28T21:32:13.041Z,100093.59
2022-08-28T21:34:39.744Z,100076.84
2022-08-28T21:37:06.575Z,100087.59
2022-08-28T21:39:33.442Z,100087.72
2022-08-28T21:42:00.132Z,100085.13
2022-08-28T21:44:26.694Z,100086.13
2022-08-28T21:46:53.259Z,100089.66
2022-08-28T21:49:20.153Z,100089.00
2022-08-28T21:51:47.304Z,100097.91
2022-08-28T21:54:14.219Z,100099.75
2022-08-28T21:56:41.061Z,100103.41
2022-08-28T21:59:07.623Z,100103.47
2022-08-28T22:01:34.343Z,100107.09
2022-08-28T22:04:01.138Z,100110.69
2022-08-28T22:06:27.700Z,100107.31
2022-08-28T22:08:55.805Z,100114.44
2022-08-28T22:11:25.183Z,100106.59
2022-08-28T22:13:52.383Z,100105.84
2022-08-28T22:16:19.128Z,100106.81
2022-08-28T22:18:45.678Z,100102.50
2022-08-28T22:21:34.103Z,100112.47
2022-08-28T22:24:01.484Z,100112.63
2022-08-28T22:26:29.454Z,100109.16
2022-08-28T22:28:56.287Z,100114.56
2022-08-28T22:31:23.776Z,100115.63
2022-08-28T22:33:51.180Z,100120.13
2022-08-28T22:36:17.889Z,100115.78
2022-08-28T22:38:47.153Z,100111.44
2022-08-28T22:41:20.255Z,100118.66
2022-08-28T22:43:50.972Z,100117.00
2022-08-28T22:46:20.493Z,100113.56
2022-08-28T22:48:47.683Z,100119.91
2022-08-28T22:51:18.291Z,100122.78
2022-08-28T22:53:45.446Z,100120.28
2022-08-28T22:56:12.272Z,100135.50
2022-08-28T22:58:39.359Z,100125.94
2022-08-28T23:01:19.710Z,100129.63
2022-08-28T23:03:46.786Z,100134.16
2022-08-28T23:06:13.959Z,100125.41
2022-08-28T23:08:40.692Z,100130.84
2022-08-28T23:11:07.409Z,100133.59
2022-08-28T23:13:34.033Z,100132.78
2022-08-28T23:16:01.556Z,100132.03
2022-08-28T23:18:29.107Z,100136.53
2022-08-28T23:20:56.055Z,100134.91
2022-08-28T23:23:25.418Z,100127.97
2022-08-28T23:25:52.016Z,100128.09
2022-08-28T23:28:19.964Z,100132.66
2022-08-28T23:30:48.498Z,100130.13
2022-08-28T23:33:23.588Z,100135.53
2022-08-28T23:35:50.633Z,100137.38
2022-08-28T23:38:17.152Z,100133.09
2022-08-28T23:40:44.385Z,100136.72
2022-08-28T23:43:11.545Z,100135.91
2022-08-28T23:45:42.254Z,100133.38
2022-08-28T23:48:09.167Z,100136.09
2022-08-28T23:50:36.257Z,100134.41
2022-08-28T23:53:04.012Z,100137.13
2022-08-28T23:55:30.981Z,100131.94
2022-08-28T23:58:00.326Z,100132.00
